Date,TemperatureHighF,TemperatureAvgF,TemperatureLowF,DewpointHighF,DewpointAvgF,DewpointLowF,HumidityHigh,HumidityAvg,HumidityLow,PressureMaxIn,PressureMinIn,WindSpeedMaxMPH,WindSpeedAvgMPH,GustSpeedMaxMPH,PrecipitationSumIn
2013-1-1,40.2,36.4,33.6,32.7,30.9,29.5,85,80,74,30.02,29.91,3,1,16,0.00
2013-1-2,35.8,30.3,25.3,22.9,18.8,14.7,68,62,56,30.21,30.10,5,2,18,0.00
2013-1-3,28.7,19.7,17.9,20.5,15.1,13.9,85,82,71,30.25,30.23,1,0,5,0.00
2013-1-8,34.0,32.2,31.0,29.9,29.1,28.1,90,88,84,30.41,30.38,1,0,1,0.00
2013-1-9,44.4,38.1,30.8,40.3,35.5,29.5,95,90,82,30.36,30.26,16,1,16,0.01
2013-1-10,39.9,39.8,39.7,30.2,30.1,29.9,68,68,68,30.46,30.45,7,2,7,0.00
2013-1-11,41.3,40.8,40.5,40.0,39.1,37.4,96,94,87,30.19,30.13,3,2,6,0.11
2013-1-12,45.8,43.8,42.4,45.5,43.2,41.9,99,98,96,30.18,30.13,0,0,2,0.01
2013-1-13,52.1,49.9,46.2,51.9,49.7,45.9,100,99,99,30.10,30.00,10,2,10,0.00
2013-1-16,39.3,37.7,35.9,38.8,37.2,35.4,98,98,97,29.99,29.96,10,0,10,0.62
2013-1-17,37.1,36.1,34.7,32.2,31.3,29.7,89,83,77,30.13,30.06,15,1,15,0.01
2013-1-18,34.2,34.2,34.2,18.4,18.4,18.4,52,52,52,30.47,30.47,3,0,3,0.00
2013-1-19,42.9,42.5,42.2,32.0,31.9,31.7,67,66,65,30.23,30.22,7,2,7,0.00
2013-1-20,55.7,37.7,28.4,38.0,26.3,18.1,89,66,35,30.08,29.83,26,2,26,0.00
2013-1-21,39.2,29.4,24.1,27.2,19.9,11.7,73,67,59,30.10,29.83,25,2,25,0.00
2013-1-22,23.9,16.3,10.2,12.0,3.9,1.0,73,58,45,30.31,29.97,29,3,29,0.00
2013-1-23,24.4,15.2,7.7,8.3,4.2,1.4,77,62,45,30.36,30.21,17,2,17,0.00
2013-1-24,27.2,18.9,14.0,16.5,10.7,4.2,87,71,50,30.53,30.11,24,2,24,0.02
2013-1-25,19.8,16.5,12.2,15.5,9.7,4.3,91,75,55,30.53,30.08,16,1,16,0.00
2013-1-26,31.1,22.9,16.4,24.8,19.4,14.0,92,87,74,30.45,30.09,12,0,12,0.02
2013-1-27,36.2,26.7,14.9,24.5,20.0,12.1,91,76,60,30.60,30.45,11,1,11,0.01
2013-1-28,33.4,31.2,29.4,32.6,28.4,23.0,97,90,72,30.47,30.11,11,2,17,0.15
2013-1-29,65.7,58.4,43.8,59.0,53.3,43.4,100,84,73,30.11,29.93,15,2,15,0.01
2013-1-30,66.6,56.3,47.4,62.3,54.7,45.9,99,95,82,29.94,29.20,26,3,26,1.72
2013-1-31,54.8,37.3,26.0,54.5,29.0,14.5,99,72,58,29.89,29.14,30,5,30,0.35
2013-2-1,28.5,22.6,14.2,23.6,13.7,6.2,91,69,56,30.39,29.83,28,3,28,0.05
2013-2-2,24.7,18.1,9.5,22.7,13.0,4.8,93,80,66,30.40,30.02,12,1,12,0.00
2013-2-3,30.8,25.8,19.4,27.7,23.2,17.7,95,90,73,30.03,29.83,19,1,19,0.02
2013-2-4,33.6,27.7,20.9,26.1,18.9,13.0,85,70,59,30.10,29.89,17,2,19,0.00
2013-2-5,36.4,31.8,28.0,32.8,28.9,25.8,96,89,83,29.94,29.85,6,0,6,0.01
2013-2-6,42.4,32.9,25.6,32.5,27.8,20.7,96,82,66,30.36,29.93,18,1,18,0.01
2013-2-7,36.2,30.3,23.1,28.3,23.9,19.5,89,77,67,30.45,30.20,16,2,16,0.01
2013-2-8,40.2,34.6,30.8,38.3,31.7,24.1,96,89,76,30.20,29.78,27,3,27,0.05
2013-2-9,40.7,30.5,23.6,26.1,21.0,17.0,79,68,50,30.41,29.95,27,4,27,0.00
2013-2-10,43.1,31.5,18.6,25.6,20.4,13.5,85,65,45,30.49,30.21,23,3,23,0.00
2013-2-11,51.9,41.2,33.9,48.4,37.8,25.6,98,89,51,30.22,29.69,25,3,25,0.27
2013-2-12,54.9,43.8,31.3,38.7,32.5,27.3,85,65,50,29.99,29.82,25,2,25,0.00
2013-2-13,40.9,33.5,26.4,33.1,29.1,24.1,96,84,68,29.96,29.67,14,0,14,0.02
2013-2-14,44.9,34.9,30.9,34.4,30.2,27.4,96,84,65,30.01,29.78,7,0,7,0.14
2013-2-15,54.7,38.7,27.6,41.3,33.3,25.0,96,82,56,30.04,29.92,16,1,16,0.16
2013-2-16,39.2,31.8,26.2,33.9,27.6,19.5,97,85,68,30.00,29.86,18,1,18,0.00
2013-2-17,30.0,24.0,19.0,20.0,15.4,10.1,83,70,55,30.22,29.86,26,4,26,0.00
2013-2-18,40.2,28.8,16.7,20.7,14.9,8.5,73,57,43,30.38,30.14,20,3,20,0.00
2013-2-19,45.0,36.2,28.9,40.8,29.4,20.0,93,77,54,30.14,29.69,26,3,26,0.12
2013-2-20,34.9,27.9,22.5,24.7,17.7,12.0,73,65,57,30.17,29.85,28,5,28,0.00
2013-2-21,38.7,27.1,21.4,24.6,17.6,13.0,83,67,53,30.35,30.13,22,3,22,0.00
2013-2-22,30.5,27.9,22.6,28.2,23.3,17.9,91,83,72,30.39,30.20,19,2,19,0.01
2013-2-23,46.9,36.9,30.5,43.3,35.1,28.2,97,93,86,30.21,29.82,11,1,11,0.01
2013-2-24,49.2,37.5,27.0,38.2,31.1,21.3,97,79,53,30.13,29.79,23,2,23,0.00
2013-2-25,45.7,34.2,22.7,32.1,25.4,18.8,87,71,53,30.22,30.11,12,1,12,0.00
2013-2-26,39.8,35.7,30.3,38.6,31.3,23.9,96,84,69,30.22,29.61,28,5,28,1.09
2013-2-27,55.2,43.4,35.3,46.8,38.3,34.3,98,83,59,29.69,29.53,31,2,31,0.04
2013-2-28,43.7,38.2,30.2,36.4,32.0,26.8,90,78,65,29.73,29.63,15,2,15,0.01
2013-3-1,46.4,36.7,29.0,37.0,30.3,23.9,86,78,66,29.90,29.72,18,2,18,0.00
2013-3-2,38.1,30.6,27.5,27.0,23.8,21.4,84,76,61,29.90,29.82,16,2,16,0.00
2013-3-3,42.7,31.6,26.7,29.8,23.2,20.3,85,72,56,29.92,29.80,21,3,21,0.00
2013-3-4,41.5,30.0,24.1,27.6,20.3,16.3,74,67,55,30.03,29.91,28,5,28,0.00
2013-3-5,47.6,42.2,34.3,29.4,27.3,24.5,72,56,43,30.08,29.81,6,3,0,0.00
2013-3-6,37.2,33.3,31.4,34.8,32.2,29.7,97,96,74,29.92,29.66,33,4,33,0.35
2013-3-7,36.6,34.0,30.8,31.3,29.7,27.4,87,84,80,30.17,30.16,3,1,0,0.20
2013-3-8,49.5,39.0,30.8,36.3,30.7,26.9,87,73,58,30.30,30.15,30,3,30,0.00
2013-3-9,59.6,40.7,25.5,40.4,30.4,22.2,88,69,42,30.37,30.26,11,0,11,0.00
2013-3-10,62.2,47.4,32.3,37.1,31.1,26.6,83,56,37,30.32,30.19,19,3,19,0.00
2013-3-11,57.2,49.3,41.3,49.8,42.8,27.1,94,79,45,30.22,29.87,21,5,21,0.00
2013-3-12,56.9,49.2,38.8,52.4,44.6,30.9,98,84,68,29.96,29.74,24,4,24,0.91
2013-3-13,38.8,38.1,37.4,31.1,30.3,29.2,75,73,72,29.96,29.94,22,4,22,0.00
2013-3-14,42.8,34.4,28.7,26.4,21.9,19.2,73,60,47,30.13,30.03,17,5,17,0.00
2013-3-15,54.0,39.8,25.0,39.9,29.0,20.3,85,66,48,30.09,29.78,18,2,18,0.00
2013-3-16,45.6,40.4,35.6,38.0,35.6,33.1,92,83,74,29.93,29.65,17,1,17,0.01
2013-3-17,40.9,36.5,33.7,33.9,29.4,24.6,92,76,62,30.26,29.92,13,1,13,0.00
2013-3-18,34.5,32.8,30.2,32.2,27.5,22.1,95,81,66,30.31,29.88,17,2,17,0.06
2013-3-19,56.6,41.0,32.3,43.1,32.1,20.2,98,74,36,29.91,29.71,31,3,31,0.25
2013-3-20,49.5,38.9,28.6,29.6,23.9,18.3,78,56,38,29.98,29.77,24,3,24,0.00
2013-3-21,36.1,30.2,24.5,26.9,18.7,12.9,77,62,47,29.90,29.77,22,3,22,0.00
2013-3-22,45.5,32.5,21.5,30.9,21.6,14.3,77,65,49,30.01,29.88,23,2,23,0.00
2013-3-23,52.9,36.6,22.1,36.6,26.0,18.4,87,67,43,30.03,29.92,19,2,19,0.00
2013-3-24,38.2,30.3,25.9,27.1,23.2,20.8,85,75,61,30.00,29.88,13,1,13,0.00
2013-3-26,51.9,42.1,36.0,38.0,32.7,30.4,81,70,56,29.99,29.85,5,2,0,0.02
2013-3-27,36.1,36.1,36.1,30.8,30.8,30.8,81,81,81,29.99,29.99,1,1,0,0.00
2013-3-28,44.5,43.2,42.5,34.5,33.7,32.3,72,69,63,30.14,30.13,17,4,17,0.00
2013-3-29,57.3,46.0,32.6,42.0,34.9,28.6,88,67,45,30.26,30.13,23,1,23,0.00
2013-3-30,59.6,44.2,30.4,40.2,32.4,27.3,90,66,36,30.23,30.10,13,1,13,0.00
2013-3-31,46.9,44.6,36.6,46.1,38.9,27.7,97,82,54,30.10,29.74,15,2,15,0.16
2013-4-1,59.1,44.5,32.3,49.6,37.5,21.8,98,78,57,29.99,29.74,25,2,25,0.01
2013-4-2,47.5,35.2,25.1,30.9,23.4,18.9,83,63,41,30.18,29.99,19,2,19,0.00
2013-4-3,50.7,35.9,24.2,31.6,23.1,16.6,81,61,39,30.40,30.17,19,2,19,0.00
2013-4-4,47.2,35.6,21.3,29.5,21.1,15.1,81,57,40,30.42,30.07,14,2,14,0.00
2013-4-5,65.7,48.3,31.3,43.8,34.0,24.3,91,61,39,30.07,29.82,25,2,25,0.00
2013-4-6,54.3,43.1,27.5,34.8,27.6,22.4,83,56,40,30.32,30.05,16,2,16,0.00
2013-4-7,68.0,52.9,39.3,50.1,39.8,25.3,74,61,50,30.25,29.95,19,5,19,0.00
2013-4-8,78.2,65.2,48.6,58.2,51.1,44.3,87,62,43,30.06,29.89,18,1,18,0.00
2013-4-9,82.8,69.2,54.4,65.9,57.2,49.6,85,67,49,30.06,29.27,14,1,14,0.00
2013-4-10,87.5,72.7,57.7,69.5,60.4,52.6,84,67,46,29.94,28.35,18,1,18,0.00
2013-4-11,69.5,63.8,58.6,59.6,56.9,54.4,87,78,71,29.87,29.39,17,1,17,0.00
2013-4-12,68.3,55.2,47.5,64.0,53.8,44.6,98,95,79,29.77,29.57,18,3,18,0.40
2013-4-13,66.4,53.3,41.4,49.3,42.4,37.6,90,68,47,29.95,29.77,17,2,17,0.00
2013-4-14,66.1,53.3,39.3,48.2,41.1,35.4,88,65,45,30.15,29.95,16,1,16,0.00
2013-4-15,63.7,57.3,52.7,55.1,49.1,41.8,81,74,60,30.26,30.11,19,3,19,0.00
2013-4-16,74.1,62.3,53.8,64.0,56.3,48.1,90,81,68,30.27,30.08,20,4,20,0.00
2013-4-17,70.0,62.5,54.9,66.5,58.2,54.2,100,86,71,30.21,30.10,14,1,14,0.09
2013-4-18,74.7,63.2,56.6,67.1,59.1,54.4,99,87,71,30.21,29.95,19,4,19,0.10
2013-4-19,72.5,63.4,48.9,67.0,60.0,44.8,97,89,80,29.96,29.57,23,6,23,0.38
2013-4-20,59.9,49.4,39.9,44.9,37.3,30.5,86,64,45,30.36,29.75,25,3,25,0.00
2013-4-21,53.2,42.7,29.7,38.0,30.9,25.1,84,64,45,30.59,30.35,13,1,13,0.00
2013-4-22,57.4,46.3,37.0,43.1,36.0,31.0,82,68,52,30.57,30.39,17,2,17,0.00
2013-4-23,58.7,47.2,38.9,49.3,40.9,34.1,90,79,64,30.42,30.10,14,1,14,0.00
2013-4-24,49.3,45.9,41.6,43.5,41.6,39.3,93,85,79,30.11,30.07,10,1,10,0.00
2013-4-27,69.5,61.9,41.2,52.7,45.3,37.0,85,55,43,30.41,30.26,13,2,13,0.00
2013-4-28,62.2,54.6,50.0,51.0,46.2,41.3,93,74,57,30.27,30.11,16,3,16,0.08
2013-4-29,56.9,52.5,50.5,56.0,50.7,48.2,98,94,80,30.13,30.06,19,3,19,0.21
2013-4-30,58.3,54.9,52.8,57.2,54.1,52.3,98,97,93,30.29,30.08,4,2,0,0.20
2013-5-1,70.2,57.2,43.2,52.5,45.1,40.0,98,67,38,30.41,30.29,4,2,0,0.00
2013-5-2,70.4,55.3,40.4,54.8,47.4,39.4,98,77,49,30.42,30.31,4,1,0,0.00
2013-5-3,67.9,55.6,44.8,52.1,46.8,41.2,93,74,52,30.38,30.27,5,2,0,0.00
2013-5-4,68.3,53.8,39.3,51.5,45.4,38.0,97,75,49,30.33,30.17,6,2,0,0.00
2013-5-5,64.4,52.1,41.8,49.7,43.9,39.4,92,75,52,30.24,30.13,5,2,0,0.00
2013-5-6,59.6,50.7,45.0,55.1,46.8,42.0,93,87,81,30.17,30.10,8,3,16,0.00
2013-5-7,61.0,58.5,56.3,60.4,57.8,55.5,98,97,96,30.06,29.93,7,4,0,0.18
2013-5-8,67.6,58.9,51.5,63.6,56.7,50.7,98,93,74,29.99,29.91,6,1,0,0.12
2013-5-9,74.0,59.9,48.2,65.6,56.7,47.7,99,90,67,30.00,29.90,7,0,7,0.03
2013-5-10,82.2,65.2,53.2,66.7,59.6,52.7,99,84,55,30.00,29.83,15,1,15,0.04
2013-5-11,72.4,63.5,57.8,67.5,61.8,55.5,100,94,80,29.87,29.05,17,0,17,0.24
2013-5-12,62.1,54.9,40.8,55.8,44.0,33.9,92,68,47,30.03,29.74,24,3,24,0.01
2013-5-13,59.7,47.6,37.1,45.0,36.2,31.6,89,66,42,30.17,30.01,21,2,21,0.00
2013-5-14,63.2,48.3,31.3,47.2,38.1,29.0,93,70,47,30.22,30.03,19,1,19,0.00
2013-5-15,82.2,63.5,52.3,70.5,55.1,40.4,98,74,59,30.03,29.66,17,2,17,0.14
2013-5-16,63.6,62.4,60.5,63.2,62.0,60.1,99,99,98,29.75,29.73,2,0,2,0.00
2013-5-19,71.3,67.7,65.5,67.1,65.1,64.0,96,92,85,30.11,30.07,11,2,11,0.01
2013-5-20,80.4,70.4,64.3,72.0,67.0,63.6,98,90,72,30.10,29.95,11,1,11,0.01
2013-5-21,86.0,73.6,64.5,76.0,69.6,64.0,100,88,68,29.98,28.21,14,1,14,0.01
2013-5-22,88.3,74.1,64.1,75.9,69.6,63.3,100,88,59,29.93,29.25,15,1,15,0.29
2013-5-23,63.8,63.3,63.0,63.3,62.9,62.6,99,99,98,29.87,29.83,3,0,3,0.00
2013-5-24,55.6,50.4,44.0,48.0,42.2,36.3,78,73,69,30.17,29.98,33,4,33,0.03
2013-5-25,65.5,51.6,35.7,50.3,41.5,33.9,94,70,49,30.19,30.07,23,2,23,0.00
2013-5-26,70.3,52.9,41.0,51.9,42.8,37.4,89,70,47,30.20,30.13,18,2,18,0.00
2013-5-27,67.6,57.0,43.3,54.2,47.9,39.5,90,73,51,30.28,30.17,2,0,0,0.00
2013-5-28,75.5,64.1,53.9,67.9,59.8,50.8,98,86,73,30.19,30.04,4,1,0,0.02
2013-5-29,87.4,74.0,61.6,72.8,67.4,61.0,100,82,55,30.09,29.96,5,1,0,0.00
2013-5-30,90.5,77.5,63.5,76.7,69.6,62.7,98,78,53,30.16,30.07,3,1,0,0.00
2013-5-31,88.3,76.6,64.3,72.5,67.9,63.4,97,77,53,30.12,29.99,5,1,11,0.00
2013-6-1,89.0,77.2,64.8,75.3,69.4,63.6,97,78,60,30.01,29.87,5,1,11,0.00
2013-6-2,79.1,71.9,65.9,73.1,68.5,64.1,97,89,78,29.87,29.81,4,1,9,0.04
2013-6-3,81.0,70.2,60.1,73.5,66.2,55.7,100,88,68,29.95,29.82,3,0,10,0.46
2013-6-4,59.9,53.4,48.9,55.9,50.9,45.9,96,91,86,30.04,29.95,1,0,1,0.00
2013-6-5,75.9,75.3,74.7,62.8,62.2,61.7,64,64,64,30.06,30.04,2,2,0,0.00
2013-6-6,64.3,64.2,64.1,63.6,63.4,63.2,98,97,97,29.89,29.87,5,4,0,0.06
2013-6-7,68.3,67.1,66.1,67.9,66.7,65.8,99,98,98,29.75,28.93,6,1,6,0.39
2013-6-8,79.2,70.3,60.3,69.5,64.1,58.9,96,81,65,30.09,29.61,13,1,13,0.00
2013-6-9,79.6,69.0,59.0,70.7,64.7,58.2,99,87,68,30.19,29.56,11,1,11,0.06
2013-6-10,78.2,69.8,65.9,75.3,68.8,65.6,100,97,88,30.08,29.76,20,2,20,0.62
2013-6-11,79.8,70.4,62.1,73.0,67.1,62.1,100,90,73,29.84,28.60,18,1,18,0.00
2013-6-12,77.3,68.9,63.1,73.1,66.7,62.4,98,93,85,29.84,29.65,4,0,4,0.00
2013-6-13,80.3,70.8,65.4,73.4,68.4,64.2,100,92,75,29.78,28.92,29,1,29,0.52
2013-6-14,79.6,68.1,59.5,66.3,59.8,56.6,92,76,54,29.98,29.58,4,1,0,0.00
2013-6-15,60.0,58.3,57.1,57.7,56.8,55.9,96,94,92,29.99,29.97,0,0,0,0.00
2013-6-16,77.6,72.5,65.6,71.0,67.7,63.6,94,85,77,29.92,29.87,9,0,9,0.00
2013-6-17,85.1,74.2,63.1,76.1,68.9,61.9,97,84,67,29.94,29.00,10,0,10,0.00
2013-6-18,74.2,69.6,66.3,73.1,68.5,65.4,99,96,91,29.89,29.03,6,0,6,0.18
2013-6-19,77.1,67.0,60.5,67.8,62.3,59.6,99,86,64,30.14,29.73,3,1,0,0.17
2013-6-20,79.0,68.6,59.9,67.8,63.4,59.1,100,85,64,30.25,30.14,5,1,0,0.00
2013-6-21,82.3,70.7,56.9,67.8,60.1,52.8,92,70,56,30.28,30.20,12,1,12,0.00
2013-6-22,85.8,73.6,62.0,75.1,67.4,58.6,99,82,64,30.23,30.10,10,1,10,0.00
2013-6-23,86.3,75.2,67.3,76.2,70.7,66.3,98,87,66,30.17,30.04,10,1,10,0.00
2013-6-24,70.9,70.5,70.2,69.7,69.5,69.3,97,97,96,30.10,30.08,0,0,0,0.00
2013-6-25,90.6,77.6,65.6,79.9,72.2,64.7,100,85,64,30.01,28.22,4,1,0,0.11
2013-6-26,87.0,72.3,63.6,78.4,70.0,63.3,100,93,74,29.91,29.01,8,0,0,0.26
2013-6-27,83.7,73.2,66.4,77.5,70.7,66.4,100,92,78,29.81,28.33,5,1,16,0.10
2013-6-28,86.2,74.5,65.3,76.2,69.6,64.7,99,85,66,29.59,29.37,5,1,16,0.00
2013-6-29,85.5,73.8,63.1,73.4,67.1,61.9,98,81,55,29.68,29.50,4,1,16,0.09
2013-6-30,85.0,73.5,65.4,77.5,70.8,65.1,100,92,73,29.83,29.67,7,1,16,0.03
2013-7-1,81.2,73.9,70.1,74.7,71.6,69.2,99,93,78,29.95,29.11,12,1,12,0.09
2013-7-2,81.5,75.5,72.4,75.5,72.6,70.8,95,91,80,30.14,29.61,16,3,16,0.00
2013-7-3,83.2,75.1,71.6,77.4,72.9,70.4,99,93,81,30.21,30.12,12,1,12,0.11
2013-7-4,87.8,78.8,72.6,79.0,74.3,71.7,98,87,72,30.22,30.06,15,2,15,0.00
2013-7-5,80.5,72.9,69.6,76.1,71.5,69.0,100,95,86,30.20,30.06,10,0,10,0.00
2013-7-6,91.1,80.1,69.9,79.1,74.1,69.6,100,83,64,30.17,29.77,12,1,12,0.00
2013-7-7,88.8,75.2,67.6,79.8,71.7,67.2,99,90,68,30.08,29.63,29,0,29,0.50
2013-7-8,85.9,74.1,66.7,76.6,70.6,66.7,100,90,65,30.10,28.94,13,0,16,0.04
2013-7-9,82.0,74.4,67.9,76.5,72.1,67.3,99,93,79,30.09,29.40,9,0,9,0.01
2013-7-10,73.7,73.6,73.5,72.5,72.4,72.2,96,96,96,29.97,29.86,1,0,1,0.00
2013-7-11,83.5,78.7,73.8,74.4,72.2,69.0,86,81,70,29.90,29.69,0,0,0,0.01
2013-7-12,73.5,71.7,70.6,69.0,68.8,68.4,94,91,85,29.99,29.99,6,2,6,0.41
2013-7-13,82.8,73.4,67.2,75.1,70.8,66.6,100,92,75,30.25,30.02,12,0,12,0.08
2013-7-14,88.8,78.9,71.9,78.3,74.4,71.3,99,87,67,30.32,30.23,16,1,16,0.00
2013-7-15,94.3,80.7,69.1,82.3,75.2,68.9,100,85,61,30.29,30.10,9,0,9,0.00
2013-7-16,95.0,82.0,72.2,83.5,75.4,70.2,98,82,55,30.23,29.56,10,0,10,0.03
2013-7-17,95.8,82.1,71.5,82.6,74.6,70.2,98,80,51,30.21,29.77,9,0,9,0.00
2013-7-18,96.2,83.5,71.4,84.8,77.5,70.7,100,84,61,30.10,29.46,10,0,10,0.00
2013-7-19,94.0,82.2,72.2,84.1,77.0,70.2,100,85,65,29.99,28.99,23,1,23,0.00
2013-7-20,90.9,78.4,70.4,81.1,73.4,69.0,97,85,64,29.88,28.99,15,0,15,0.02
2013-7-21,87.4,76.1,68.0,77.5,72.0,66.5,98,88,70,29.92,29.43,2,0,7,0.00
2013-7-22,86.3,75.3,67.8,77.5,72.5,67.5,100,92,71,29.92,28.38,18,0,18,0.62
2013-7-23,85.6,74.9,69.3,77.4,72.0,68.1,100,91,69,29.75,28.00,14,0,14,0.03
2013-7-24,84.7,73.1,63.8,74.2,66.6,57.8,98,81,59,29.79,24.73,15,1,15,0.00
2013-7-25,78.0,66.9,55.9,67.0,58.5,52.3,92,75,58,30.01,27.53,20,1,20,0.00
2013-7-26,81.9,68.7,57.3,69.4,62.5,56.7,100,82,56,30.09,25.90,13,0,13,0.00
2013-7-27,81.5,70.4,61.7,73.9,67.4,59.7,99,90,75,30.01,27.23,13,1,13,0.01
2013-7-28,82.7,72.5,64.1,74.4,69.2,63.1,99,90,68,29.90,24.36,17,1,17,0.55
2013-7-29,80.7,67.1,54.8,67.2,61.5,54.4,100,84,55,30.09,26.42,9,0,9,0.01
2013-7-30,82.1,68.5,56.2,69.9,62.1,55.4,99,82,59,30.23,25.48,11,0,11,0.00
2013-7-31,78.9,69.2,61.4,71.0,65.9,60.5,99,90,74,30.14,26.00,10,0,10,0.08
2013-8-1,82.3,71.6,66.4,76.2,69.7,66.1,100,94,76,29.46,25.78,12,0,12,0.31
2013-8-2,84.8,72.1,61.8,72.6,66.3,61.8,100,84,55,29.95,26.91,15,1,15,0.01
2013-8-3,71.3,66.9,63.0,68.6,65.3,61.4,99,95,86,29.96,29.32,6,0,6,0.13
2013-8-4,80.0,67.7,57.3,68.5,61.9,55.0,100,83,56,30.03,27.49,17,1,17,0.01
2013-8-5,79.8,66.1,53.5,66.0,59.1,52.3,99,80,53,30.10,28.71,9,0,9,0.00
2013-8-6,76.6,67.6,61.9,71.0,65.0,58.2,98,91,80,30.05,26.50,13,1,13,0.54
2013-8-7,82.1,72.3,67.0,75.7,70.1,66.2,99,93,78,30.05,28.75,14,1,14,0.93
2013-8-8,77.0,70.1,68.0,75.1,68.4,-99.9,100,98,92,30.01,29.71,9,-13,9,0.01
2013-8-9,82.3,75.5,70.8,78.4,74.2,70.5,100,96,83,29.93,28.57,19,1,19,0.94
2013-8-10,83.2,72.4,65.2,73.0,68.9,64.0,100,90,63,30.05,29.51,7,0,7,0.01
2013-8-11,84.1,73.3,63.4,74.5,68.4,62.8,99,86,65,30.08,29.62,10,1,10,0.00
2013-8-12,87.3,76.7,69.2,77.1,71.7,68.0,100,86,62,29.98,26.18,10,0,10,0.00
2013-8-13,84.6,72.9,67.3,75.6,70.0,61.3,100,91,69,29.82,21.07,12,0,12,0.38
2013-8-14,67.2,63.9,59.1,61.5,57.1,52.1,82,79,74,29.19,26.36,10,1,10,0.00
2013-8-16,78.0,70.3,58.2,64.0,60.6,56.2,93,73,54,30.15,25.67,10,0,10,0.00
2013-8-17,79.2,67.3,54.4,66.1,60.2,53.6,100,80,60,30.24,22.81,13,1,13,0.00
2013-8-18,72.3,65.5,59.6,66.4,62.4,58.8,98,90,75,30.16,25.92,8,0,8,0.04
2013-8-19,74.9,65.4,57.9,70.4,63.9,57.6,100,95,84,30.16,27.38,7,0,7,0.01
2013-8-20,85.0,72.7,62.7,75.1,68.1,62.5,100,87,60,30.13,25.16,12,0,12,0.00
2013-8-21,86.3,74.4,64.1,77.2,70.8,63.3,100,89,69,29.48,22.42,11,0,11,0.00
2013-8-22,85.6,74.5,65.8,76.5,70.2,64.8,100,87,71,29.94,24.78,10,0,10,0.00
2013-8-23,72.5,68.0,62.5,69.6,66.6,62.1,99,95,83,30.10,29.32,16,0,16,0.21
2013-8-24,80.5,68.1,57.0,68.4,61.2,55.8,99,81,54,30.30,26.36,10,1,10,0.01
2013-8-25,81.0,68.2,58.2,69.2,62.6,57.0,100,84,59,30.38,29.64,10,0,10,0.00
2013-8-26,86.2,71.9,58.8,74.7,65.6,57.8,100,82,62,30.25,29.61,11,0,11,0.00
2013-8-27,89.2,79.4,68.0,78.6,73.8,66.8,98,84,65,29.91,27.12,10,0,10,0.00
2013-8-28,74.2,71.7,69.0,73.6,71.1,68.7,100,98,93,29.69,27.62,6,0,6,0.22
2013-8-29,84.3,74.9,67.9,75.8,71.1,67.6,100,89,68,29.78,27.51,16,1,16,0.01
2013-8-31,87.5,76.1,67.5,78.2,72.9,67.2,100,90,69,29.84,29.13,3,0,0,0.00
2013-9-1,89.0,76.2,66.4,79.5,72.6,66.1,100,89,70,29.80,28.94,2,0,0,0.02
2013-9-2,89.3,76.4,68.4,79.1,73.0,68.4,100,90,64,29.76,29.08,2,0,0,0.40
2013-9-3,83.2,72.4,62.3,71.0,65.6,56.7,98,81,55,29.93,28.42,2,1,0,0.00
2013-9-4,81.0,66.3,53.1,66.4,59.2,52.2,99,80,50,30.06,27.25,2,0,0,0.00
2013-9-5,81.8,67.2,56.2,69.9,60.1,51.9,99,80,53,30.11,27.72,3,1,0,0.00
2013-9-6,75.3,63.0,54.2,60.4,52.6,46.9,89,70,51,30.24,29.32,9,1,9,0.00
2013-9-7,80.1,63.9,50.8,66.8,57.9,49.1,99,82,58,30.12,26.92,9,0,9,0.00
2013-9-8,86.7,71.6,60.3,75.2,65.5,58.6,98,82,64,30.01,27.78,18,1,18,0.01
2013-9-9,75.5,66.7,59.0,66.9,58.2,48.6,91,74,59,30.17,20.62,17,2,17,0.00
2013-9-10,90.2,76.4,65.0,79.1,71.5,64.4,99,86,66,29.07,18.58,10,1,10,0.00
2013-9-11,73.4,72.1,71.1,72.2,71.4,70.5,99,97,96,28.91,27.35,0,0,0,0.00
2013-9-12,91.7,80.0,68.2,78.2,72.4,65.1,93,79,60,29.77,27.55,4,1,0,0.00
2013-9-13,78.7,66.5,52.7,65.1,59.2,48.6,97,79,52,29.92,27.01,5,1,0,0.00
2013-9-14,70.2,55.6,44.2,55.7,48.8,43.0,97,80,53,30.14,28.66,14,0,14,0.00
2013-9-15,75.3,59.3,44.3,61.3,53.0,43.5,99,82,57,30.21,26.95,14,0,14,0.00
2013-9-16,74.4,62.1,54.0,65.7,58.3,52.3,98,88,63,30.20,28.28,14,0,14,0.09
2013-9-17,68.1,55.7,44.4,54.6,46.6,39.7,90,73,44,30.41,30.07,15,1,15,0.00
2013-9-18,70.0,55.7,44.5,55.5,49.5,42.8,98,81,54,30.32,30.06,10,1,10,0.00
2013-9-19,77.5,60.8,48.9,64.4,55.5,47.8,98,84,60,30.17,29.67,9,0,9,0.00
2013-9-20,79.3,63.5,54.9,67.7,59.5,54.3,99,88,64,30.06,29.61,10,1,10,0.00
2013-9-21,69.0,63.9,60.1,64.9,61.9,59.8,99,93,83,29.88,27.96,16,2,16,0.54
2013-9-22,71.8,61.6,51.8,61.8,56.6,50.3,100,85,60,29.83,28.45,14,1,14,0.01
2013-9-27,71.7,62.6,53.7,62.0,58.1,52.9,98,86,67,30.21,29.62,4,0,6,0.00
2013-9-28,67.1,58.4,49.6,58.1,54.5,48.7,98,88,68,30.29,29.99,10,0,10,0.00
2013-9-29,72.5,58.5,47.8,60.8,53.6,47.3,100,85,57,30.19,27.30,11,0,11,0.00
2013-9-30,77.8,60.7,50.3,62.2,55.7,49.5,99,85,55,30.07,20.95,9,0,9,0.01
2013-10-1,81.6,64.7,54.3,68.8,59.5,53.6,100,86,58,30.06,26.59,9,0,9,0.00
2013-10-2,85.3,67.5,55.5,69.8,61.9,54.9,99,84,56,30.05,28.26,2,0,0,0.00
2013-10-3,82.9,69.3,59.0,70.2,64.5,58.2,100,86,62,30.09,27.20,2,0,0,0.00
2013-10-4,72.0,63.1,60.9,68.9,62.5,60.3,100,98,90,29.94,27.20,0,0,0,0.00
2013-10-5,86.8,72.0,63.6,73.6,67.0,62.7,99,86,59,30.01,28.58,3,0,0,0.00
2013-10-6,86.9,75.0,62.7,73.3,67.6,62.1,100,80,56,29.98,27.34,6,2,0,0.00
2013-10-7,72.1,63.0,51.7,68.5,60.2,47.1,99,91,78,30.03,27.12,16,2,16,0.55
2013-10-8,68.8,54.7,44.5,55.4,48.4,43.4,98,81,53,30.27,29.51,11,0,11,0.00
2013-10-9,59.6,53.7,47.6,52.1,48.3,45.6,95,82,66,30.32,29.81,18,1,18,0.03
2013-10-10,54.2,53.1,51.4,51.2,50.1,48.8,95,90,83,30.21,30.13,18,2,18,0.01
2013-10-11,60.9,59.9,57.3,60.6,59.5,57.2,100,99,97,29.98,29.61,20,2,20,0.86
2013-10-12,68.0,61.4,57.6,62.2,58.4,53.6,99,90,72,30.15,28.72,22,4,22,0.14
2013-10-13,59.6,57.7,56.2,58.1,56.5,54.1,99,96,91,30.30,28.97,17,2,17,0.11
2013-10-14,70.2,58.5,52.1,61.1,54.6,50.7,97,88,68,30.32,26.65,10,0,10,0.00
2013-10-15,70.7,58.1,48.1,62.4,52.8,46.7,100,84,58,30.21,29.14,6,0,8,0.00
2013-10-16,68.0,61.9,55.4,63.0,59.3,50.6,98,91,83,30.05,27.82,6,0,7,0.00
2013-10-17,73.8,63.8,56.9,65.8,61.3,51.5,100,92,74,29.87,24.47,22,1,22,0.07
2013-10-18,56.8,52.9,50.2,50.9,47.1,43.3,83,81,77,29.89,27.31,16,1,16,0.00
2013-10-19,60.9,52.0,45.0,56.7,49.5,43.0,97,91,83,29.97,27.31,4,1,0,0.13
2013-10-20,62.6,49.0,37.1,48.4,42.0,35.7,96,78,52,30.07,29.23,6,1,6,0.00
2013-10-21,65.7,51.5,37.9,50.8,43.4,36.6,97,76,49,30.13,29.61,15,2,15,0.00
2013-10-22,61.2,49.9,40.5,52.1,44.6,35.1,96,83,57,29.91,29.05,13,0,13,0.00
2013-10-23,54.2,44.1,38.3,43.3,38.1,34.5,91,80,54,29.88,29.29,13,0,13,0.00
2013-10-24,51.5,39.6,32.2,39.1,34.0,29.9,96,81,56,30.12,29.43,18,1,18,0.00
2013-10-25,53.9,39.7,29.8,42.4,33.7,28.3,95,80,56,30.30,30.01,17,1,17,0.00
2013-10-26,54.9,41.9,29.1,38.4,33.0,27.1,93,73,50,30.29,29.15,16,1,16,0.01
2013-10-27,60.1,45.8,34.7,44.7,37.4,32.3,92,74,49,30.13,28.64,18,0,18,0.00
2013-10-28,62.6,45.2,33.5,48.0,38.6,31.4,95,79,52,30.26,27.83,6,0,6,0.00
2013-10-29,62.2,48.1,38.6,50.0,41.6,35.9,94,80,57,30.37,29.92,9,0,9,0.00
2013-10-30,68.5,55.1,44.9,59.2,51.1,42.7,97,87,68,30.29,29.82,8,0,8,0.06
2013-10-31,66.2,59.9,54.9,60.7,57.8,53.8,98,93,81,30.15,27.29,18,2,18,0.11
2013-11-1,73.3,62.3,49.7,63.5,56.5,46.8,99,83,50,29.71,27.57,26,2,26,0.28
2013-11-2,66.2,53.2,43.9,54.3,46.7,39.8,94,79,62,29.85,28.69,16,1,16,0.00
2013-11-3,56.7,46.8,36.2,43.1,36.8,25.9,88,69,45,30.43,29.58,18,2,18,0.00
2013-11-4,44.1,36.1,27.2,30.3,26.3,21.7,82,68,52,30.61,29.87,18,1,18,0.00
2013-11-5,52.7,44.4,32.6,45.3,38.0,25.6,89,78,62,30.60,27.89,10,0,10,0.00
2013-11-6,66.1,55.8,43.8,55.6,50.1,41.8,96,81,68,30.42,26.75,16,2,16,0.00
2013-11-7,57.7,51.1,36.8,55.0,46.2,28.0,97,84,63,30.05,29.69,22,1,22,0.16
2013-11-8,50.2,38.7,29.8,36.0,30.2,25.8,91,73,51,30.29,30.05,23,1,23,0.00
2013-11-9,53.1,39.8,27.7,37.1,30.9,24.9,91,72,52,30.33,30.00,18,2,18,0.00
2013-11-10,59.0,45.3,36.5,42.6,34.5,30.3,85,67,50,30.19,29.20,24,2,24,0.00
2013-11-11,55.2,44.6,35.4,39.3,34.4,30.4,83,68,49,30.26,29.43,13,1,13,0.00
2013-11-12,48.4,37.6,27.0,40.7,27.8,18.8,80,68,56,30.37,29.95,17,1,17,0.00
2013-11-13,43.7,32.2,24.9,28.7,23.2,19.7,83,70,52,30.46,29.90,6,1,6,0.00
2013-11-14,56.2,37.5,23.4,32.1,24.4,17.0,80,62,34,30.35,29.17,10,0,10,0.00
2013-11-15,61.9,44.7,31.2,37.7,31.2,24.4,79,61,35,30.25,29.90,6,0,6,0.00
2013-11-16,57.9,48.2,38.4,51.1,45.5,37.1,97,91,76,30.29,28.43,12,1,12,0.04
2013-11-17,59.2,54.7,49.8,58.2,54.0,49.1,99,97,94,30.17,29.33,20,4,20,0.03
2013-11-18,64.3,55.7,45.5,59.6,41.9,30.1,97,62,39,29.91,28.85,20,2,20,0.07
2013-11-19,50.6,39.9,27.9,36.6,30.1,24.4,87,69,55,30.36,26.64,21,1,21,0.00
2013-11-20,45.2,34.5,24.4,29.9,24.3,18.3,88,68,44,30.55,29.92,14,1,14,0.00
2013-11-21,45.4,40.5,31.7,40.1,34.4,25.9,87,79,69,30.56,29.78,13,1,13,0.00
2013-11-22,58.6,50.1,41.8,52.4,46.6,38.3,95,88,77,30.35,28.49,13,0,13,0.00
2013-11-23,50.8,38.9,27.0,46.5,29.5,14.6,85,69,57,30.20,29.38,21,2,21,0.00
2013-11-24,31.9,23.7,19.3,16.3,13.0,9.7,73,63,50,30.49,29.07,24,2,24,0.00
2013-11-25,36.1,25.8,14.7,17.6,13.6,9.6,81,61,43,30.54,29.51,15,1,15,0.00
2013-11-26,38.0,32.7,30.1,37.0,27.4,16.4,96,82,56,30.29,29.40,23,1,23,1.56
2013-11-27,37.1,33.5,25.9,36.3,30.7,18.5,98,90,72,30.01,29.30,29,2,29,0.20
2013-11-28,37.9,29.2,23.3,23.4,19.8,15.7,81,68,53,30.45,29.69,17,2,17,0.01
2013-11-29,44.2,30.1,21.4,28.9,22.6,17.9,88,75,53,30.69,29.98,14,1,14,0.00
2013-11-30,34.7,29.0,23.6,23.3,20.2,16.3,86,69,59,30.70,28.73,12,1,12,0.00
2013-12-1,42.7,33.3,22.7,33.5,27.3,20.2,93,79,64,30.36,27.44,4,0,4,0.00
2013-12-2,45.7,39.3,33.9,37.8,34.1,31.3,93,82,68,29.99,27.34,5,0,5,0.00
2013-12-3,54.8,41.5,34.2,43.7,37.0,31.9,94,85,64,29.96,29.36,7,0,7,0.00
2013-12-4,57.1,46.1,34.4,50.1,42.6,33.1,97,88,73,30.07,29.63,14,1,14,0.00
2013-12-5,66.0,56.8,49.5,60.0,54.9,47.8,99,94,79,30.02,28.79,11,1,11,0.03
2013-12-6,60.4,45.5,35.5,60.1,45.0,35.0,99,98,97,30.17,29.50,14,0,14,1.69
2013-12-7,39.3,35.4,32.4,35.7,33.4,30.3,98,93,74,30.40,28.99,14,1,14,0.01
2013-12-8,28.4,25.0,21.3,27.4,22.1,18.3,96,89,75,30.57,28.31,14,0,14,0.00
2013-12-9,36.2,31.5,28.4,34.6,30.5,27.4,97,96,93,30.31,28.63,13,0,13,0.31
2013-12-10,37.7,29.7,18.6,34.8,27.5,15.4,98,91,80,30.20,28.51,17,1,17,0.20
2013-12-11,23.3,18.2,16.4,18.7,15.0,13.7,90,87,81,30.28,30.18,13,1,13,0.00
2013-12-12,31.5,22.4,14.3,24.3,14.4,8.1,87,72,50,30.42,30.07,3,1,0,0.08
2013-12-13,41.1,27.3,15.5,26.5,18.0,9.8,85,69,51,30.29,30.01,13,1,13,0.07
2013-12-14,34.0,31.4,28.2,32.2,28.9,24.0,97,90,75,30.31,26.16,19,2,19,0.27
2013-12-15,41.4,32.9,28.8,38.7,29.7,23.3,98,88,76,29.91,28.12,19,1,19,0.21
2013-12-16,37.5,31.1,26.3,27.6,24.5,20.4,85,77,65,30.17,29.87,10,0,10,0.00
2013-12-17,38.4,30.9,26.5,33.6,27.8,24.4,95,88,80,30.13,29.01,12,1,12,0.02
2013-12-18,38.2,29.7,24.4,27.2,23.9,20.2,96,79,63,30.20,29.96,15,1,15,0.00
2013-12-19,49.3,33.9,21.6,35.2,27.1,18.8,89,77,53,30.18,29.94,4,0,6,0.00
2013-12-20,45.1,39.3,34.9,37.3,33.8,30.6,85,80,72,30.08,26.00,5,0,5,0.00
2013-12-21,64.3,52.2,40.3,59.4,47.2,36.7,92,83,72,29.99,26.49,16,1,16,0.00
2013-12-22,67.0,61.9,56.2,63.9,60.1,55.3,99,94,88,29.92,26.06,26,3,26,0.33
2013-12-23,56.9,48.0,32.2,56.9,46.1,27.3,100,93,78,30.22,27.25,19,1,19,0.53
2013-12-24,38.7,28.5,19.2,30.4,21.6,11.7,90,75,58,30.45,28.31,22,1,22,0.01
2013-12-25,29.6,22.6,14.4,17.5,14.2,9.9,85,70,59,30.57,28.47,16,1,16,0.00
2013-12-26,45.5,30.0,23.6,31.9,22.3,16.8,84,74,53,30.34,28.31,21,1,21,0.00
2013-12-27,49.2,33.4,22.9,28.4,23.1,19.1,86,68,40,30.39,26.44,13,1,13,0.00
2013-12-28,56.2,39.7,28.2,35.3,28.8,22.5,81,66,44,30.30,29.60,14,1,14,0.00
2013-12-29,45.2,42.1,37.8,44.4,39.3,30.6,98,91,66,30.07,27.34,19,1,19,0.84
2013-12-30,42.9,35.4,25.2,41.6,31.3,20.2,98,85,74,30.17,29.28,17,1,17,0.01
2013-12-31,39.6,30.4,24.8,30.2,23.7,20.8,87,76,58,30.16,29.67,21,2,21,0.00
2014-1-1,45.0,33.0,21.8,30.9,25.1,17.8,87,73,57,30.38,28.80,10,2,10,0.00
2014-1-2,37.7,30.5,26.1,31.5,28.0,24.4,96,90,72,30.09,27.06,16,0,16,0.00